Time;durP1;ratioP1;P1;durP2;ratioP2;P2;SDS_P1;SDS_P2;PMS_P1;PMS_P2;Temp;Humidity;BMP_temperature;BMP_pressure;BME280_temperature;BME280_humidity;BME280_pressure;Samples;Min_cycle;Max_cycle;Signal;HPM_P1;HPM_P2
2022/01/20 00:00:17;;;;;;;17.33;9.65;;;;;;;;;;5035376;28;20507;-79
2022/01/20 00:02:47;;;;;;;21.75;9.63;;;;;;;;;;5035129;28;20069;-79
2022/01/20 00:06:10;;;;;;;17.98;9.43;;;;;;;;;;5033850;28;20050;-79
2022/01/20 00:26:46;;;;;;;25.77;10.80;;;;;;;;;;5035685;28;20036;-79
2022/01/20 00:30:11;;;;;;;20.40;9.45;;;;;;;;;;5035235;28;20034;-78
2022/01/20 00:38:35;;;;;;;24.55;9.55;;;;;;;;;;5033453;28;20076;-78
2022/01/20 00:41:12;;;;;;;21.38;10.05;;;;;;;;;;5034745;28;20037;-77
2022/01/20 00:43:39;;;;;;;25.85;11.40;;;;;;;;;;5034071;28;20457;-77
2022/01/20 00:46:34;;;;;;;23.90;12.13;;;;;;;;;;5034192;28;20061;-77
2022/01/20 00:49:02;;;;;;;21.77;10.45;;;;;;;;;;5034858;28;20045;-77
2022/01/20 00:51:35;;;;;;;21.45;10.38;;;;;;;;;;5034358;28;20049;-77
2022/01/20 00:54:08;;;;;;;19.83;10.35;;;;;;;;;;5034607;28;20175;-77
2022/01/20 00:56:36;;;;;;;21.70;10.23;;;;;;;;;;5034026;28;20116;-77
2022/01/20 00:59:04;;;;;;;20.23;9.60;;;;;;;;;;5034624;28;20396;-77
2022/01/20 01:01:34;;;;;;;23.70;10.65;;;;;;;;;;5034274;28;20511;-77
2022/01/20 01:04:03;;;;;;;22.85;10.35;;;;;;;;;;5034181;28;20516;-77
2022/01/20 01:09:00;;;;;;;20.10;10.13;;;;;;;;;;5034125;28;20127;-77
2022/01/20 01:11:58;;;;;;;21.60;10.95;;;;;;;;;;5034266;28;20400;-78
2022/01/20 01:14:29;;;;;;;25.85;10.27;;;;;;;;;;5034092;28;20055;-78
2022/01/20 01:22:24;;;;;;;23.10;10.38;;;;;;;;;;5032830;28;20136;-78
2022/01/20 01:24:55;;;;;;;20.15;9.65;;;;;;;;;;5032584;28;20469;-78
2022/01/20 01:27:24;;;;;;;20.65;9.50;;;;;;;;;;5033960;28;20057;-78
2022/01/20 01:35:09;;;;;;;20.25;9.88;;;;;;;;;;5031172;28;20133;-78
2022/01/20 01:40:12;;;;;;;26.33;10.68;;;;;;;;;;5032277;28;20049;-78
2022/01/20 01:42:48;;;;;;;18.42;9.30;;;;;;;;;;5032446;28;20045;-78
2022/01/20 01:45:17;;;;;;;;;;;;;;;;;;5032758;28;20103;-78
2022/01/20 01:47:51;;;;;;;19.33;9.15;;;;;;;;;;5032520;28;19927;-78
2022/01/20 01:50:22;;;;;;;20.40;9.90;;;;;;;;;;5049341;28;20049;-79
2022/01/20 01:52:54;;;;;;;22.20;9.40;;;;;;;;;;5032365;28;20053;-79
2022/01/20 01:55:22;;;;;;;19.30;9.60;;;;;;;;;;5031984;28;20091;-79
2022/01/20 01:57:53;;;;;;;19.45;9.80;;;;;;;;;;5032104;28;20045;-79
2022/01/20 02:00:23;;;;;;;22.08;10.02;;;;;;;;;;5048815;28;20049;-79
2022/01/20 02:03:01;;;;;;;;;;;;;;;;;;5032584;28;20420;-80
2022/01/20 02:18:52;;;;;;;19.65;8.65;;;;;;;;;;5032396;28;20645;-81
2022/01/20 02:22:01;;;;;;;18.65;9.52;;;;;;;;;;5042630;28;20056;-78
2022/01/20 02:25:10;;;;;;;21.27;9.80;;;;;;;;;;5016747;28;20084;-79
2022/01/20 02:27:38;;;;;;;16.50;8.85;;;;;;;;;;5031574;28;20136;-79
2022/01/20 02:30:08;;;;;;;24.20;10.93;;;;;;;;;;5031705;28;20037;-79
2022/01/20 02:32:55;;;;;;;20.33;10.20;;;;;;;;;;5031399;28;20041;-79
2022/01/20 02:35:25;;;;;;;21.85;10.13;;;;;;;;;;5031752;28;20049;-79
2022/01/20 02:38:27;;;;;;;20.60;10.23;;;;;;;;;;5031747;28;20042;-79
2022/01/20 02:52:33;;;;;;;18.50;8.77;;;;;;;;;;5036185;28;20032;-80
2022/01/20 02:55:26;;;;;;;22.45;9.07;;;;;;;;;;5035160;28;20048;-80
2022/01/20 02:57:59;;;;;;;18.52;9.18;;;;;;;;;;5052229;28;20065;-80
2022/01/20 03:00:38;;;;;;;18.33;9.75;;;;;;;;;;5034799;28;20503;-80
2022/01/20 03:03:12;;;;;;;23.77;9.68;;;;;;;;;;5036506;28;20083;-80
2022/01/20 03:05:42;;;;;;;16.67;9.05;;;;;;;;;;5035232;28;20056;-80
2022/01/20 03:08:11;;;;;;;17.27;9.27;;;;;;;;;;5035406;28;20103;-80
2022/01/20 03:10:41;;;;;;;19.60;9.60;;;;;;;;;;5036607;28;20124;-80
2022/01/20 03:13:11;;;;;;;18.17;9.75;;;;;;;;;;5018765;28;20115;-80
2022/01/20 03:15:42;;;;;;;20.63;9.50;;;;;;;;;;5035358;28;20042;-80
2022/01/20 03:18:13;;;;;;;19.73;9.75;;;;;;;;;;5035050;28;20132;-80
2022/01/20 03:20:43;;;;;;;14.27;8.48;;;;;;;;;;5034685;28;20128;-80
2022/01/20 03:23:10;;;;;;;18.65;9.45;;;;;;;;;;5036274;28;20475;-80
2022/01/20 03:25:40;;;;;;;20.17;10.02;;;;;;;;;;5036271;28;20475;-80
2022/01/20 03:28:10;;;;;;;18.58;9.05;;;;;;;;;;5034745;28;20049;-80
2022/01/20 03:30:40;;;;;;;22.85;9.40;;;;;;;;;;5051844;28;20523;-80
2022/01/20 03:33:13;;;;;;;20.88;10.38;;;;;;;;;;5034797;28;20115;-80
2022/01/20 03:35:42;;;;;;;21.80;9.93;;;;;;;;;;5034804;28;20048;-80
2022/01/20 03:38:31;;;;;;;20.00;10.05;;;;;;;;;;5035896;28;20199;-80
2022/01/20 03:40:59;;;;;;;19.08;9.25;;;;;;;;;;5034381;28;20045;-80
2022/01/20 03:43:30;;;;;;;17.38;9.00;;;;;;;;;;5034391;28;20041;-80
2022/01/20 03:46:05;;;;;;;19.35;9.45;;;;;;;;;;5034523;28;20431;-80
2022/01/20 03:48:38;;;;;;;;;;;;;;;;;;5034970;28;20065;-80
2022/01/20 03:51:11;;;;;;;14.48;8.43;;;;;;;;;;5034423;28;20382;-80
2022/01/20 03:53:54;;;;;;;21.80;9.35;;;;;;;;;;5035484;28;20052;-80
2022/01/20 03:56:37;;;;;;;21.67;9.68;;;;;;;;;;5033613;28;20053;-80
2022/01/20 03:59:57;;;;;;;17.65;8.95;;;;;;;;;;5053160;28;20052;-80
2022/01/20 04:02:41;;;;;;;20.27;9.55;;;;;;;;;;5035528;28;20038;-80
2022/01/20 04:05:30;;;;;;;20.48;10.15;;;;;;;;;;5033974;28;20045;-80
2022/01/20 04:08:23;;;;;;;21.98;10.15;;;;;;;;;;5034616;28;20041;-80
2022/01/20 04:10:52;;;;;;;23.10;10.45;;;;;;;;;;5035457;28;20148;-80
2022/01/20 04:13:22;;;;;;;22.10;10.73;;;;;;;;;;5035324;28;20451;-80
2022/01/20 04:15:56;;;;;;;18.92;8.93;;;;;;;;;;5033710;28;20416;-79
2022/01/20 04:18:26;;;;;;;19.80;9.45;;;;;;;;;;5034214;28;20056;-80
2022/01/20 04:21:00;;;;;;;17.73;9.70;;;;;;;;;;5033298;28;20037;-80
2022/01/20 04:23:30;;;;;;;18.75;9.13;;;;;;;;;;5033736;28;20092;-81
2022/01/20 04:26:07;;;;;;;21.70;9.68;;;;;;;;;;5033896;28;20052;-79
2022/01/20 04:28:34;;;;;;;20.88;9.63;;;;;;;;;;5035028;28;20049;-80
2022/01/20 04:31:08;;;;;;;19.63;9.20;;;;;;;;;;5033654;28;20068;-80
2022/01/20 04:33:41;;;;;;;18.88;9.73;;;;;;;;;;5033654;28;20045;-80
2022/01/20 04:36:18;;;;;;;18.13;9.43;;;;;;;;;;5033462;28;20467;-80
2022/01/20 04:39:12;;;;;;;21.42;10.35;;;;;;;;;;5033362;28;20041;-80
2022/01/20 04:45:52;;;;;;;20.75;9.43;;;;;;;;;;5051583;28;20032;-80
2022/01/20 04:58:48;;;;;;;19.08;8.82;;;;;;;;;;5034338;28;20037;-79
2022/01/20 05:01:15;;;;;;;18.60;8.57;;;;;;;;;;5032713;28;20459;-79
2022/01/20 05:04:38;;;;;;;18.70;9.27;;;;;;;;;;5012235;28;20609;-79
2022/01/20 05:07:44;;;;;;;17.30;9.88;;;;;;;;;;5012234;28;20049;-79
2022/01/20 05:10:16;;;;;;;21.85;9.73;;;;;;;;;;5030048;28;20045;-80
2022/01/20 05:13:04;;;;;;;17.27;9.05;;;;;;;;;;5032839;28;20140;-80
2022/01/20 05:15:34;;;;;;;;;;;;;;;;;;5033887;28;20051;-79
2022/01/20 05:18:07;;;;;;;24.48;9.23;;;;;;;;;;5066066;28;19921;-80
2022/01/20 05:20:37;;;;;;;20.00;8.55;;;;;;;;;;5032404;28;20046;-80
2022/01/20 05:23:07;;;;;;;22.63;9.85;;;;;;;;;;5032886;28;20081;-79
2022/01/20 05:25:38;;;;;;;21.50;9.95;;;;;;;;;;5032743;28;20100;-80
2022/01/20 05:28:06;;;;;;;19.85;9.88;;;;;;;;;;5032493;28;20140;-79
2022/01/20 05:30:34;;;;;;;23.70;9.82;;;;;;;;;;5032141;28;20077;-79
2022/01/20 05:33:29;;;;;;;17.98;9.45;;;;;;;;;;5032508;28;20045;-79
2022/01/20 05:35:58;;;;;;;23.08;10.65;;;;;;;;;;5015878;28;20492;-79
2022/01/20 05:38:28;;;;;;;22.33;9.52;;;;;;;;;;5032558;28;20041;-79
2022/01/20 05:40:57;;;;;;;31.17;9.82;;;;;;;;;;5032404;28;20045;-79
2022/01/20 05:43:33;;;;;;;20.63;9.65;;;;;;;;;;5032419;28;20049;-80
2022/01/20 05:46:04;;;;;;;19.52;10.00;;;;;;;;;;5032288;28;20055;-79
2022/01/20 05:48:46;;;;;;;21.55;9.60;;;;;;;;;;5066008;28;20073;-79
2022/01/20 05:51:39;;;;;;;20.17;10.32;;;;;;;;;;5031930;28;20098;-79
2022/01/20 05:54:10;;;;;;;21.95;10.20;;;;;;;;;;5032395;28;20050;-79
2022/01/20 05:56:37;;;;;;;19.05;10.45;;;;;;;;;;5029608;28;20120;-78
2022/01/20 05:59:05;;;;;;;26.48;12.15;;;;;;;;;;5041044;28;20128;-79
2022/01/20 06:01:37;;;;;;;27.42;10.57;;;;;;;;;;5032189;28;20037;-77
2022/01/20 06:04:34;;;;;;;21.83;10.65;;;;;;;;;;5032156;28;20057;-78
2022/01/20 06:07:06;;;;;;;23.52;11.25;;;;;;;;;;5032007;28;20053;-78
2022/01/20 06:09:34;;;;;;;44.72;15.93;;;;;;;;;;5032071;28;20143;-78
2022/01/20 06:12:07;;;;;;;26.60;12.55;;;;;;;;;;5032112;28;20052;-78
2022/01/20 06:14:35;;;;;;;26.40;12.88;;;;;;;;;;5033361;28;20112;-78
2022/01/20 06:17:05;;;;;;;25.52;12.48;;;;;;;;;;5031965;28;20037;-77
2022/01/20 06:19:59;;;;;;;25.75;11.48;;;;;;;;;;5032445;28;20075;-78
2022/01/20 06:22:31;;;;;;;21.30;12.45;;;;;;;;;;5038457;28;20132;-78
2022/01/20 06:24:59;;;;;;;23.63;12.82;;;;;;;;;;5038185;28;20045;-78
2022/01/20 06:27:30;;;;;;;30.13;14.10;;;;;;;;;;5038519;28;20132;-78
2022/01/20 06:29:58;;;;;;;29.45;12.77;;;;;;;;;;5039517;28;20041;-78
2022/01/20 06:32:32;;;;;;;28.40;12.73;;;;;;;;;;5038383;28;20128;-78
2022/01/20 06:35:06;;;;;;;23.83;11.90;;;;;;;;;;5038427;28;20468;-78
2022/01/20 06:37:59;;;;;;;20.40;11.05;;;;;;;;;;5038095;28;20132;-78
2022/01/20 06:40:52;;;;;;;25.65;12.73;;;;;;;;;;5039616;28;20091;-78
2022/01/20 06:43:45;;;;;;;26.25;13.13;;;;;;;;;;5038192;28;20048;-78
2022/01/20 06:46:18;;;;;;;23.88;13.05;;;;;;;;;;5037989;28;20053;-77
2022/01/20 06:48:51;;;;;;;25.88;13.35;;;;;;;;;;5037789;28;20056;-77
2022/01/20 06:52:10;;;;;;;30.67;13.68;;;;;;;;;;5038211;28;20053;-78
2022/01/20 06:54:39;;;;;;;26.40;12.02;;;;;;;;;;5039519;28;20063;-78
2022/01/20 07:00:58;;;;;;;24.52;11.50;;;;;;;;;;5037460;28;20029;-78
2022/01/20 07:03:28;;;;;;;23.83;12.05;;;;;;;;;;5037008;28;20144;-78
2022/01/20 07:06:23;;;;;;;28.52;13.48;;;;;;;;;;5039334;28;20041;-78
2022/01/20 07:09:14;;;;;;;27.83;12.73;;;;;;;;;;5039092;28;20053;-78
2022/01/20 07:12:08;;;;;;;27.23;12.88;;;;;;;;;;5037633;28;20107;-78
2022/01/20 07:14:39;;;;;;;27.85;12.30;;;;;;;;;;5037850;28;20500;-79
2022/01/20 07:17:07;;;;;;;26.45;13.18;;;;;;;;;;5037959;28;20400;-78
2022/01/20 07:20:02;;;;;;;26.95;13.90;;;;;;;;;;5038065;28;20045;-79
2022/01/20 07:30:10;;;;;;;19.75;10.02;;;;;;;;;;5039194;28;20396;-76
2022/01/20 07:32:53;;;;;;;28.80;11.55;;;;;;;;;;5034557;28;20091;-76
2022/01/20 07:35:22;;;;;;;27.05;12.73;;;;;;;;;;5034240;28;20053;-76
2022/01/20 07:38:27;;;;;;;29.27;14.10;;;;;;;;;;5034832;28;20136;-77
2022/01/20 07:40:55;;;;;;;23.70;12.15;;;;;;;;;;5034104;28;20050;-77
2022/01/20 07:47:41;;;;;;;16.63;9.32;;;;;;;;;;5035073;28;20518;-78
2022/01/20 07:50:12;;;;;;;18.90;9.25;;;;;;;;;;5034518;28;20519;-77
2022/01/20 07:52:43;;;;;;;20.25;9.80;;;;;;;;;;5033921;28;20557;-78
2022/01/20 07:55:11;;;;;;;19.10;9.05;;;;;;;;;;5033845;28;20492;-78
2022/01/20 07:57:39;;;;;;;17.45;10.13;;;;;;;;;;5034154;28;20451;-78
2022/01/20 08:00:16;;;;;;;16.50;9.88;;;;;;;;;;5033889;28;20097;-78
2022/01/20 08:02:44;;;;;;;23.48;9.68;;;;;;;;;;5035068;28;20041;-76
2022/01/20 08:05:26;;;;;;;19.15;10.05;;;;;;;;;;5032847;28;20091;-76
2022/01/20 08:07:58;;;;;;;16.48;9.68;;;;;;;;;;5034122;28;20069;-78
2022/01/20 08:10:28;;;;;;;21.35;10.73;;;;;;;;;;5067023;28;20044;-78
2022/01/20 08:12:58;;;;;;;19.83;9.40;;;;;;;;;;5034441;28;20045;-78
2022/01/20 08:15:30;;;;;;;16.92;9.57;;;;;;;;;;5034028;28;20045;-78
2022/01/20 08:18:12;;;;;;;24.45;11.13;;;;;;;;;;5034354;28;20053;-79
2022/01/20 08:20:40;;;;;;;25.92;12.15;;;;;;;;;;5033516;28;20049;-80
2022/01/20 08:23:16;;;;;;;28.40;14.25;;;;;;;;;;5033803;28;20068;-79
2022/01/20 08:25:46;;;;;;;24.58;10.90;;;;;;;;;;5017330;28;20045;-79
2022/01/20 08:28:22;;;;;;;17.88;9.07;;;;;;;;;;5033531;28;20474;-80
2022/01/20 08:30:51;;;;;;;18.48;9.45;;;;;;;;;;5034764;28;20065;-79
2022/01/20 08:33:24;;;;;;;22.63;12.07;;;;;;;;;;5034156;28;20046;-80
2022/01/20 08:36:11;;;;;;;22.33;10.98;;;;;;;;;;5033667;28;20045;-81
2022/01/20 08:38:44;;;;;;;27.02;12.95;;;;;;;;;;5034103;28;20483;-80
2022/01/20 08:41:12;;;;;;;19.15;8.95;;;;;;;;;;5034586;28;20033;-80
2022/01/20 08:43:40;;;;;;;18.90;9.57;;;;;;;;;;5032874;28;20125;-79
2022/01/20 08:46:19;;;;;;;17.45;8.23;;;;;;;;;;5033141;28;20096;-80
2022/01/20 08:49:12;;;;;;;16.52;8.95;;;;;;;;;;5033282;28;20507;-80
2022/01/20 08:51:47;;;;;;;15.00;8.52;;;;;;;;;;5033659;28;20496;-80
2022/01/20 08:54:23;;;;;;;15.13;8.57;;;;;;;;;;5033432;28;20056;-80
2022/01/20 08:57:03;;;;;;;20.60;11.35;;;;;;;;;;5033377;28;20045;-80
2022/01/20 08:59:40;;;;;;;19.30;10.35;;;;;;;;;;5033574;28;20081;-79
2022/01/20 09:02:34;;;;;;;22.17;13.38;;;;;;;;;;5033338;28;20046;-80
2022/01/20 09:05:03;;;;;;;12.48;7.50;;;;;;;;;;5034854;28;20060;-79
2022/01/20 09:07:53;;;;;;;16.15;8.27;;;;;;;;;;5034000;28;20080;-79
2022/01/20 09:10:37;;;;;;;15.50;6.47;;;;;;;;;;5067886;28;20072;-79
2022/01/20 09:16:01;;;;;;;10.10;5.47;;;;;;;;;;5032967;28;19921;-80
2022/01/20 09:18:45;;;;;;;13.02;7.35;;;;;;;;;;5066310;28;20130;-80
2022/01/20 09:21:21;;;;;;;15.27;7.07;;;;;;;;;;5033275;28;20044;-80
2022/01/20 09:23:53;;;;;;;9.38;5.38;;;;;;;;;;5032794;28;20041;-80
2022/01/20 09:26:28;;;;;;;12.68;6.75;;;;;;;;;;5032784;28;20492;-79
2022/01/20 09:28:59;;;;;;;11.48;6.10;;;;;;;;;;5032745;28;20073;-79
2022/01/20 09:31:37;;;;;;;21.52;11.57;;;;;;;;;;5032623;28;20060;-80
2022/01/20 09:34:06;;;;;;;12.27;6.38;;;;;;;;;;5017255;28;20139;-79
2022/01/20 09:37:04;;;;;;;11.05;7.15;;;;;;;;;;5032825;28;20471;-79
2022/01/20 09:39:42;;;;;;;11.27;5.47;;;;;;;;;;5032687;28;20541;-79
2022/01/20 09:42:25;;;;;;;10.60;5.45;;;;;;;;;;5032737;28;20049;-80
2022/01/20 09:45:18;;;;;;;11.93;6.20;;;;;;;;;;5065876;28;20053;-79
2022/01/20 09:48:11;;;;;;;15.52;5.80;;;;;;;;;;5032499;28;20519;-79
2022/01/20 09:51:11;;;;;;;14.50;6.28;;;;;;;;;;5033913;28;20090;-80
2022/01/20 09:53:39;;;;;;;13.18;5.45;;;;;;;;;;5033810;28;20088;-80
2022/01/20 09:56:37;;;;;;;9.85;5.88;;;;;;;;;;5032339;28;20077;-80
2022/01/20 09:59:28;;;;;;;14.18;7.65;;;;;;;;;;5032890;28;20045;-79
2022/01/20 10:01:58;;;;;;;15.85;6.82;;;;;;;;;;5032735;28;20049;-79
2022/01/20 10:04:56;;;;;;;18.17;10.20;;;;;;;;;;5031499;28;20495;-78
2022/01/20 10:07:53;;;;;;;22.60;7.80;;;;;;;;;;5032533;28;20049;-78
2022/01/20 10:10:57;;;;;;;12.65;7.63;;;;;;;;;;5066102;28;20137;-78
2022/01/20 10:14:16;;;;;;;17.25;7.20;;;;;;;;;;5032608;28;20056;-79
2022/01/20 10:17:20;;;;;;;12.52;6.95;;;;;;;;;;5033571;28;20041;-79
2022/01/20 10:20:04;;;;;;;15.27;8.45;;;;;;;;;;5031957;28;20160;-78
2022/01/20 10:22:39;;;;;;;15.45;7.80;;;;;;;;;;5065306;28;20049;-79
2022/01/20 10:25:33;;;;;;;16.17;8.20;;;;;;;;;;5032249;28;20046;-78
2022/01/20 10:28:09;;;;;;;16.05;7.75;;;;;;;;;;5065265;28;20096;-79
2022/01/20 10:30:55;;;;;;;18.38;8.10;;;;;;;;;;5032468;28;20431;-80
2022/01/20 10:33:24;;;;;;;16.35;8.23;;;;;;;;;;5031800;28;20512;-80
2022/01/20 10:35:55;;;;;;;14.13;7.90;;;;;;;;;;5031358;28;20072;-79
2022/01/20 10:38:57;;;;;;;13.93;7.95;;;;;;;;;;5031871;28;20046;-79
2022/01/20 10:41:39;;;;;;;13.32;7.07;;;;;;;;;;5032591;28;20365;-79
2022/01/20 10:44:16;;;;;;;13.35;7.30;;;;;;;;;;5031846;28;20087;-79
2022/01/20 10:46:58;;;;;;;16.02;7.85;;;;;;;;;;5064864;28;20046;-79
2022/01/20 10:52:52;;;;;;;18.50;7.15;;;;;;;;;;5031982;28;20416;-77
2022/01/20 10:55:26;;;;;;;15.80;7.38;;;;;;;;;;5031206;28;20048;-77
2022/01/20 10:58:12;;;;;;;13.57;7.30;;;;;;;;;;5065469;28;20046;-78
2022/01/20 11:01:06;;;;;;;19.65;8.50;;;;;;;;;;5031689;28;20052;-77
2022/01/20 11:03:35;;;;;;;16.88;7.25;;;;;;;;;;5065122;28;20163;-78
2022/01/20 11:09:39;;;;;;;13.32;6.93;;;;;;;;;;5006308;28;20041;-79
2022/01/20 11:12:38;;;;;;;14.20;6.85;;;;;;;;;;5035410;28;20050;-79
2022/01/20 11:15:17;;;;;;;12.38;6.68;;;;;;;;;;5035746;28;20037;-79
2022/01/20 11:17:46;;;;;;;;;;;;;;;;;;5036094;28;20056;-79
2022/01/20 11:20:42;;;;;;;11.23;6.07;;;;;;;;;;5035419;28;19921;-78
2022/01/20 11:23:37;;;;;;;12.65;5.32;;;;;;;;;;5035163;28;20056;-79
2022/01/20 11:26:32;;;;;;;12.20;5.28;;;;;;;;;;5036078;28;20052;-78
2022/01/20 11:29:45;;;;;;;15.75;5.53;;;;;;;;;;5035746;28;20060;-78
2022/01/20 11:33:00;;;;;;;10.45;4.88;;;;;;;;;;5035150;28;20041;-78
2022/01/20 11:35:56;;;;;;;12.10;5.00;;;;;;;;;;5034733;28;20042;-78
2022/01/20 11:38:35;;;;;;;13.65;5.30;;;;;;;;;;5035091;28;20045;-79
2022/01/20 11:41:03;;;;;;;12.10;4.95;;;;;;;;;;5035601;28;20499;-79
2022/01/20 11:43:58;;;;;;;7.38;4.03;;;;;;;;;;5034609;28;20041;-79
2022/01/20 11:50:26;;;;;;;11.90;4.68;;;;;;;;;;5015919;28;20494;-79
2022/01/20 11:56:08;;;;;;;12.45;3.88;;;;;;;;;;5016300;28;20046;-79
2022/01/20 11:58:36;;;;;;;8.55;3.50;;;;;;;;;;5014308;28;20057;-78
2022/01/20 12:01:10;;;;;;;14.18;4.13;;;;;;;;;;5015350;28;20081;-78
2022/01/20 12:04:03;;;;;;;20.15;4.22;;;;;;;;;;5047962;28;20133;-78
2022/01/20 12:06:51;;;;;;;19.92;3.63;;;;;;;;;;5015731;28;20096;-78
2022/01/20 12:09:28;;;;;;;6.82;3.05;;;;;;;;;;5014299;28;20050;-78
2022/01/20 12:11:56;;;;;;;16.63;3.38;;;;;;;;;;5047716;28;20042;-79
2022/01/20 12:14:49;;;;;;;10.27;2.85;;;;;;;;;;5016072;28;20052;-79
2022/01/20 12:17:20;;;;;;;8.68;2.80;;;;;;;;;;5047398;28;20144;-78
2022/01/20 12:19:54;;;;;;;6.40;2.95;;;;;;;;;;5013786;28;20061;-79
2022/01/20 12:22:26;;;;;;;8.73;3.65;;;;;;;;;;5015555;28;20117;-78
2022/01/20 12:24:59;;;;;;;11.30;3.58;;;;;;;;;;5047345;28;20460;-79
2022/01/20 12:27:29;;;;;;;9.35;4.80;;;;;;;;;;5013829;28;20493;-78
2022/01/20 12:30:02;;;;;;;12.05;5.63;;;;;;;;;;5015667;28;20038;-78
2022/01/20 12:32:36;;;;;;;11.88;5.65;;;;;;;;;;5015217;28;20042;-79
2022/01/20 12:35:37;;;;;;;10.15;3.80;;;;;;;;;;5013954;28;20046;-78
2022/01/20 12:38:30;;;;;;;6.40;3.42;;;;;;;;;;5014043;28;20400;-78
2022/01/20 12:41:07;;;;;;;6.05;3.22;;;;;;;;;;5014677;28;20460;-79
2022/01/20 12:43:46;;;;;;;7.97;3.42;;;;;;;;;;5014863;28;20038;-78
2022/01/20 12:46:31;;;;;;;6.30;3.47;;;;;;;;;;5015348;28;20044;-79
2022/01/20 12:49:04;;;;;;;7.05;4.05;;;;;;;;;;5013629;28;20044;-78
2022/01/20 12:51:49;;;;;;;8.57;4.53;;;;;;;;;;5014936;28;20503;-77
2022/01/20 12:54:26;;;;;;;13.15;4.18;;;;;;;;;;5014095;28;20069;-77
2022/01/20 12:56:57;;;;;;;22.42;4.93;;;;;;;;;;5014607;28;20033;-79
2022/01/20 12:59:26;;;;;;;8.10;3.20;;;;;;;;;;5013617;28;20096;-79
2022/01/20 13:02:02;;;;;;;6.05;3.38;;;;;;;;;;5046448;28;20046;-80
2022/01/20 13:04:33;;;;;;;10.40;3.35;;;;;;;;;;5014377;28;20388;-80
2022/01/20 13:07:07;;;;;;;9.73;4.63;;;;;;;;;;5013861;28;20104;-80
2022/01/20 13:09:38;;;;;;;5.82;3.22;;;;;;;;;;5014395;28;20054;-76
2022/01/20 13:12:07;;;;;;;12.35;3.80;;;;;;;;;;5014502;28;20080;-77
2022/01/20 13:14:37;;;;;;;14.13;3.97;;;;;;;;;;5046322;28;20049;-79
2022/01/20 13:17:35;;;;;;;11.75;3.70;;;;;;;;;;5014663;28;20048;-77
2022/01/20 13:20:15;;;;;;;14.52;3.95;;;;;;;;;;5010186;28;20058;-76
2022/01/20 13:23:54;;;;;;;11.80;3.65;;;;;;;;;;5014052;28;20053;-77
2022/01/20 13:26:21;;;;;;;11.57;3.50;;;;;;;;;;5014450;28;20120;-76
2022/01/20 13:29:14;;;;;;;8.95;3.55;;;;;;;;;;5014552;28;20117;-78
2022/01/20 13:32:07;;;;;;;6.72;3.63;;;;;;;;;;5013551;28;20061;-78
2022/01/20 13:34:35;;;;;;;15.18;4.57;;;;;;;;;;5015318;28;20057;-77
2022/01/20 13:37:14;;;;;;;9.93;3.80;;;;;;;;;;5014327;28;20503;-78
2022/01/20 13:39:50;;;;;;;8.25;3.80;;;;;;;;;;5014473;28;20038;-78
2022/01/20 13:45:14;;;;;;;9.52;4.10;;;;;;;;;;5013964;28;20506;-78
2022/01/20 13:47:51;;;;;;;8.73;4.30;;;;;;;;;;5012995;28;20053;-78
2022/01/20 13:50:30;;;;;;;8.80;4.72;;;;;;;;;;5013967;28;20044;-78
2022/01/20 13:53:03;;;;;;;10.45;5.40;;;;;;;;;;5012890;28;20041;-79
2022/01/20 13:55:36;;;;;;;8.75;5.45;;;;;;;;;;5014279;28;20463;-77
2022/01/20 13:58:05;;;;;;;12.13;5.00;;;;;;;;;;5013920;28;20096;-76
2022/01/20 14:00:41;;;;;;;8.27;4.97;;;;;;;;;;5014141;28;20132;-79
2022/01/20 14:03:10;;;;;;;10.30;4.72;;;;;;;;;;5045348;28;20528;-78
2022/01/20 14:05:41;;;;;;;10.75;4.88;;;;;;;;;;5013340;28;20034;-77
2022/01/20 14:08:13;;;;;;;6.15;4.13;;;;;;;;;;5012505;28;20471;-78
2022/01/20 14:10:46;;;;;;;8.23;4.75;;;;;;;;;;5012592;28;20084;-78
2022/01/20 14:13:20;;;;;;;8.13;3.95;;;;;;;;;;5013549;28;20496;-78
2022/01/20 14:16:13;;;;;;;12.45;5.35;;;;;;;;;;5014050;28;20085;-77
2022/01/20 14:18:45;;;;;;;9.88;4.38;;;;;;;;;;5013514;28;20042;-78
2022/01/20 14:21:17;;;;;;;13.30;5.32;;;;;;;;;;5012143;28;20054;-78
2022/01/20 14:23:48;;;;;;;10.48;5.20;;;;;;;;;;5045256;28;20132;-78
2022/01/20 14:26:29;;;;;;;9.57;4.25;;;;;;;;;;5012593;28;20112;-78
2022/01/20 14:28:58;;;;;;;10.75;4.53;;;;;;;;;;5013478;28;20048;-78
2022/01/20 14:31:30;;;;;;;7.47;3.40;;;;;;;;;;5045290;28;20496;-78
2022/01/20 14:33:58;;;;;;;8.85;3.72;;;;;;;;;;5013340;28;20041;-79
2022/01/20 14:36:41;;;;;;;6.28;2.95;;;;;;;;;;5013250;28;20030;-78
2022/01/20 14:39:10;;;;;;;7.32;3.22;;;;;;;;;;5045119;28;20081;-78
2022/01/20 14:41:50;;;;;;;6.40;3.30;;;;;;;;;;5014099;28;20034;-78
2022/01/20 14:44:43;;;;;;;5.10;3.10;;;;;;;;;;5017481;28;20153;-78
2022/01/20 14:47:16;;;;;;;12.88;7.13;;;;;;;;;;5017233;28;20045;-76
2022/01/20 14:49:43;;;;;;;10.07;4.18;;;;;;;;;;5023188;28;20038;-77
2022/01/20 14:52:23;;;;;;;10.20;4.07;;;;;;;;;;5050818;28;20047;-77
2022/01/20 14:54:51;;;;;;;8.05;3.67;;;;;;;;;;5056876;28;20041;-77
2022/01/20 14:57:20;;;;;;;8.80;3.90;;;;;;;;;;5055565;28;20039;-77
2022/01/20 15:00:05;;;;;;;8.85;4.10;;;;;;;;;;5056588;28;20087;-78
2022/01/20 15:02:49;;;;;;;10.35;4.45;;;;;;;;;;5056481;28;20551;-77
2022/01/20 15:05:48;;;;;;;12.00;4.60;;;;;;;;;;5056593;28;20123;-77
2022/01/20 15:08:41;;;;;;;7.35;4.60;;;;;;;;;;5055732;28;20128;-78
2022/01/20 15:11:09;;;;;;;9.02;4.25;;;;;;;;;;5057042;28;20146;-81
2022/01/20 15:13:46;;;;;;;9.20;4.57;;;;;;;;;;5054978;28;20152;-81
2022/01/20 15:16:39;;;;;;;13.10;6.32;;;;;;;;;;5055118;28;20044;-81
2022/01/20 15:19:09;;;;;;;16.58;4.72;;;;;;;;;;5054772;28;20071;-77
2022/01/20 15:22:06;;;;;;;12.95;5.97;;;;;;;;;;5056279;28;20041;-78
2022/01/20 15:24:35;;;;;;;9.95;5.38;;;;;;;;;;5056176;28;20132;-77
2022/01/20 15:27:28;;;;;;;9.43;4.82;;;;;;;;;;5054288;28;20467;-78
2022/01/20 15:29:56;;;;;;;10.80;5.30;;;;;;;;;;5056101;28;20080;-78
2022/01/20 15:33:04;;;;;;;10.10;4.90;;;;;;;;;;5054911;28;20522;-79
2022/01/20 15:35:32;;;;;;;13.02;5.53;;;;;;;;;;5053751;28;20578;-76
2022/01/20 15:38:01;;;;;;;11.63;5.15;;;;;;;;;;5036372;28;20042;-79
2022/01/20 15:40:34;;;;;;;10.48;4.63;;;;;;;;;;5041504;28;20505;-77
2022/01/20 15:43:05;;;;;;;8.93;4.10;;;;;;;;;;5035050;28;20037;-78
2022/01/20 15:45:36;;;;;;;9.52;5.22;;;;;;;;;;5035064;28;20048;-78
2022/01/20 15:48:19;;;;;;;12.13;4.93;;;;;;;;;;5036032;28;20060;-76
2022/01/20 15:50:46;;;;;;;11.15;5.35;;;;;;;;;;5035574;28;20041;-75
2022/01/20 15:53:29;;;;;;;8.73;4.15;;;;;;;;;;5033262;28;20054;-75
2022/01/20 15:55:57;;;;;;;12.18;4.30;;;;;;;;;;5036321;28;20120;-73
2022/01/20 15:58:28;;;;;;;11.38;4.85;;;;;;;;;;5017903;28;20403;-72
2022/01/20 16:01:00;;;;;;;9.70;4.47;;;;;;;;;;5035596;28;20079;-74
2022/01/20 16:03:27;;;;;;;8.10;4.13;;;;;;;;;;5017960;28;20064;-76
2022/01/20 16:06:23;;;;;;;9.32;4.35;;;;;;;;;;5034118;28;20037;-76
2022/01/20 16:08:50;;;;;;;9.30;4.00;;;;;;;;;;5033661;28;20518;-75
2022/01/20 16:14:58;;;;;;;11.10;5.03;;;;;;;;;;5034100;28;20037;-75
2022/01/20 16:17:38;;;;;;;20.70;6.13;;;;;;;;;;5016478;28;20051;-76
2022/01/20 16:20:06;;;;;;;11.75;4.95;;;;;;;;;;5033438;28;20059;-77
2022/01/20 16:22:37;;;;;;;7.53;4.40;;;;;;;;;;5034816;28;20484;-77
2022/01/20 16:25:07;;;;;;;8.73;3.83;;;;;;;;;;5024753;28;20072;-76
2022/01/20 16:27:42;;;;;;;9.98;4.32;;;;;;;;;;5047177;28;20229;-76
2022/01/20 16:30:17;;;;;;;7.88;4.82;;;;;;;;;;5046959;28;20074;-77
2022/01/20 16:32:47;;;;;;;10.82;5.60;;;;;;;;;;5050134;28;20477;-75
2022/01/20 16:35:16;;;;;;;11.93;5.38;;;;;;;;;;5032417;28;20053;-77
2022/01/20 16:37:47;;;;;;;6.82;4.60;;;;;;;;;;5033285;28;20447;-76
2022/01/20 16:40:19;;;;;;;8.43;5.03;;;;;;;;;;5033012;28;20041;-75
2022/01/20 16:42:46;;;;;;;10.13;5.28;;;;;;;;;;5034941;28;20041;-77
2022/01/20 16:45:14;;;;;;;9.75;5.20;;;;;;;;;;5017563;28;20037;-76
2022/01/20 16:47:46;;;;;;;11.40;4.95;;;;;;;;;;5033442;28;20041;-76
2022/01/20 16:50:15;;;;;;;9.02;4.38;;;;;;;;;;5033191;28;20052;-75
2022/01/20 16:52:44;;;;;;;6.03;3.75;;;;;;;;;;5033140;28;20088;-77
2022/01/20 16:55:13;;;;;;;8.75;4.25;;;;;;;;;;5031845;28;20045;-78
2022/01/20 16:57:44;;;;;;;12.02;4.28;;;;;;;;;;5034977;28;20033;-78
2022/01/20 17:00:14;;;;;;;8.45;4.30;;;;;;;;;;5033992;28;20046;-75
2022/01/20 17:02:52;;;;;;;7.78;4.47;;;;;;;;;;5033199;28;20053;-75
2022/01/20 17:05:20;;;;;;;11.60;6.30;;;;;;;;;;5033640;28;20472;-76
2022/01/20 17:07:49;;;;;;;13.77;6.00;;;;;;;;;;5033044;28;20037;-75
2022/01/20 17:10:18;;;;;;;13.45;6.43;;;;;;;;;;5033743;28;20075;-77
2022/01/20 17:12:46;;;;;;;10.95;5.40;;;;;;;;;;5032821;28;20123;-76
2022/01/20 17:15:17;;;;;;;9.88;5.18;;;;;;;;;;5032651;28;20132;-77
2022/01/20 17:17:47;;;;;;;10.40;5.30;;;;;;;;;;5033822;28;20124;-77
2022/01/20 17:20:15;;;;;;;9.70;4.90;;;;;;;;;;5030817;28;20053;-76
2022/01/20 17:22:43;;;;;;;11.88;5.90;;;;;;;;;;5032992;28;20045;-76
2022/01/20 17:25:12;;;;;;;10.48;5.35;;;;;;;;;;5031473;28;20393;-75
2022/01/20 17:27:40;;;;;;;13.32;5.53;;;;;;;;;;5043210;28;20092;-76
2022/01/20 17:30:11;;;;;;;14.82;5.68;;;;;;;;;;5014524;28;20038;-75